Time;durP1;ratioP1;P1;durP2;ratioP2;P2;SDS_P1;SDS_P2;PMS_P1;PMS_P2;Temp;Humidity;BMP_temperature;BMP_pressure;BME280_temperature;BME280_humidity;BME280_pressure;Samples;Min_cycle;Max_cycle;Signal;HPM_P1;HPM_P2
2021/11/08 00:04:37;;;;;;;10.40;1.70;;;;;;;;;;10052287;28;20143;-63
2021/11/08 00:09:35;;;;;;;8.70;1.20;;;;;;;;;;10065990;28;20082;-62
2021/11/08 00:14:33;;;;;;;8.23;1.67;;;;;;;;;;10059137;28;20455;-63
2021/11/08 00:24:48;;;;;;;7.72;1.23;;;;;;;;;;10058225;28;20119;-64
2021/11/08 00:29:46;;;;;;;6.80;1.13;;;;;;;;;;10056602;28;20394;-64
2021/11/08 00:34:44;;;;;;;10.13;1.30;;;;;;;;;;10054670;28;20036;-65
2021/11/08 00:39:42;;;;;;;10.95;1.83;;;;;;;;;;10054072;28;20494;-65
2021/11/08 00:44:40;;;;;;;;;;;;;;;;;;10055927;28;20494;-63
2021/11/08 00:49:38;;;;;;;8.43;1.33;;;;;;;;;;10054947;28;19919;-64
2021/11/08 00:54:37;;;;;;;6.10;1.50;;;;;;;;;;10053961;28;20067;-64
2021/11/08 00:59:35;;;;;;;;;;;;;;;;;;10064149;28;20043;-65
2021/11/08 01:04:33;;;;;;;11.73;2.20;;;;;;;;;;10055353;28;19919;-65
2021/11/08 01:09:30;;;;;;;8.17;1.37;;;;;;;;;;10056309;28;20083;-65
2021/11/08 01:14:27;;;;;;;12.57;2.17;;;;;;;;;;10066364;28;20035;-66
2021/11/08 01:19:27;;;;;;;7.03;1.57;;;;;;;;;;10048708;28;20099;-65
2021/11/08 01:24:25;;;;;;;5.32;0.57;;;;;;;;;;10073856;28;20116;-64
2021/11/08 01:29:22;;;;;;;14.47;1.87;;;;;;;;;;10074024;28;20107;-65
2021/11/08 01:34:19;;;;;;;9.40;1.67;;;;;;;;;;10057855;28;20020;-65
2021/11/08 01:39:21;;;;;;;6.70;1.93;;;;;;;;;;10069252;28;20410;-64
2021/11/08 01:44:18;;;;;;;6.55;2.08;;;;;;;;;;10067798;28;20040;-64
2021/11/08 01:49:15;;;;;;;7.83;1.63;;;;;;;;;;10062393;28;20044;-65
2021/11/08 01:54:13;;;;;;;7.17;1.43;;;;;;;;;;10069003;28;20084;-64
2021/11/08 01:59:11;;;;;;;4.70;1.93;;;;;;;;;;10064284;28;20048;-63
2021/11/08 02:04:09;;;;;;;4.35;1.35;;;;;;;;;;10061919;28;20534;-64
2021/11/08 02:09:07;;;;;;;10.18;1.85;;;;;;;;;;10064395;28;20040;-64
2021/11/08 02:14:04;;;;;;;3.93;0.90;;;;;;;;;;10066772;28;20039;-64
2021/11/08 02:19:03;;;;;;;4.97;1.20;;;;;;;;;;10062046;28;20043;-65
2021/11/08 02:24:03;;;;;;;10.52;1.48;;;;;;;;;;10075798;28;20299;-61
2021/11/08 02:29:00;;;;;;;4.20;1.00;;;;;;;;;;10061034;28;20064;-62
2021/11/08 02:33:58;;;;;;;9.90;1.10;;;;;;;;;;10066827;28;20130;-66
2021/11/08 02:38:57;;;;;;;8.20;1.50;;;;;;;;;;10063721;28;20055;-63
2021/11/08 02:43:57;;;;;;;8.65;1.30;;;;;;;;;;10061149;28;20126;-64
2021/11/08 02:48:57;;;;;;;10.75;1.48;;;;;;;;;;10068704;28;20039;-62
2021/11/08 02:54:02;;;;;;;8.38;1.85;;;;;;;;;;10054887;28;20522;-65
2021/11/08 02:58:59;;;;;;;7.70;2.42;;;;;;;;;;10057849;28;20052;-66
2021/11/08 03:03:58;;;;;;;11.27;1.02;;;;;;;;;;10059075;28;20047;-63
2021/11/08 03:09:01;;;;;;;3.33;1.20;;;;;;;;;;10066628;28;20559;-63
2021/11/08 03:14:06;;;;;;;9.05;1.02;;;;;;;;;;10054770;28;20039;-61
2021/11/08 03:19:14;;;;;;;8.18;1.27;;;;;;;;;;10061038;28;20036;-62
2021/11/08 03:24:15;;;;;;;6.60;1.17;;;;;;;;;;10055465;28;20036;-63
2021/11/08 03:29:13;;;;;;;7.90;1.30;;;;;;;;;;10056672;28;20066;-63
2021/11/08 03:34:12;;;;;;;5.10;1.37;;;;;;;;;;10067451;28;20038;-63
2021/11/08 03:39:11;;;;;;;3.80;0.90;;;;;;;;;;10078259;28;20036;-62
2021/11/08 03:44:08;;;;;;;6.57;1.95;;;;;;;;;;10057465;28;20589;-63
2021/11/08 03:49:06;;;;;;;6.47;1.07;;;;;;;;;;10071619;28;20119;-63
2021/11/08 03:54:06;;;;;;;5.10;1.60;;;;;;;;;;10057160;28;20036;-62
2021/11/08 03:59:03;;;;;;;8.07;1.20;;;;;;;;;;10056611;28;20056;-63
2021/11/08 04:04:02;;;;;;;3.10;1.17;;;;;;;;;;10060646;28;20075;-65
2021/11/08 04:09:00;;;;;;;7.85;1.15;;;;;;;;;;10068394;29;20127;-64
2021/11/08 04:13:58;;;;;;;3.37;1.10;;;;;;;;;;10094877;28;20111;-64
2021/11/08 04:18:58;;;;;;;6.32;0.65;;;;;;;;;;10076512;28;20044;-65
2021/11/08 04:23:55;;;;;;;1.85;0.93;;;;;;;;;;10058829;28;20505;-63
2021/11/08 04:28:55;;;;;;;6.83;1.30;;;;;;;;;;10057655;28;20040;-65
2021/11/08 04:33:55;;;;;;;11.88;1.48;;;;;;;;;;10055074;28;20036;-66
2021/11/08 05:31:34;;;;;;;3.40;1.20;;;;;;;;;;10125658;28;20041;-63
2021/11/08 05:36:31;;;;;;;6.00;1.23;;;;;;;;;;10160707;28;20053;-62
2021/11/08 05:41:29;;;;;;;5.07;1.33;;;;;;;;;;10127735;28;20176;-62
2021/11/08 05:46:26;;;;;;;4.47;0.90;;;;;;;;;;10135498;28;20079;-62
2021/11/08 05:51:23;;;;;;;8.40;1.43;;;;;;;;;;10133802;28;20079;-63
2021/11/08 06:49:18;;;;;;;6.40;1.00;;;;;;;;;;10043788;28;20315;-62
2021/11/08 06:54:16;;;;;;;3.90;0.88;;;;;;;;;;10051273;29;20055;-63
2021/11/08 06:59:15;;;;;;;0.90;0.80;;;;;;;;;;10046152;28;20043;-63
2021/11/08 07:04:12;;;;;;;5.47;0.63;;;;;;;;;;10046133;29;20044;-63
2021/11/08 07:09:10;;;;;;;4.57;1.20;;;;;;;;;;10052258;28;20513;-63
2021/11/08 07:14:08;;;;;;;4.82;1.25;;;;;;;;;;10053620;28;20021;-63
2021/11/08 07:19:06;;;;;;;4.95;0.60;;;;;;;;;;10050661;28;20438;-62
2021/11/08 07:24:04;;;;;;;4.82;1.05;;;;;;;;;;10043071;28;20114;-61
2021/11/08 07:29:01;;;;;;;2.00;0.83;;;;;;;;;;10043337;28;20098;-61
2021/11/08 07:33:59;;;;;;;5.57;0.90;;;;;;;;;;10055433;28;20039;-63
2021/11/08 07:38:56;;;;;;;4.83;1.00;;;;;;;;;;10048114;28;20094;-61
2021/11/08 07:43:54;;;;;;;7.10;2.13;;;;;;;;;;10055023;28;20679;-63
2021/11/08 07:48:52;;;;;;;4.17;0.60;;;;;;;;;;10053116;28;20040;-62
2021/11/08 07:53:49;;;;;;;1.35;0.60;;;;;;;;;;10043470;28;20079;-62
2021/11/08 07:58:48;;;;;;;9.73;0.70;;;;;;;;;;10052079;28;20667;-61
2021/11/08 08:03:46;;;;;;;5.45;1.15;;;;;;;;;;10051674;28;20048;-62
2021/11/08 08:08:46;;;;;;;2.63;1.02;;;;;;;;;;10071220;28;20066;-62
2021/11/08 08:13:44;;;;;;;3.38;0.85;;;;;;;;;;10035146;28;20468;-62
2021/11/08 08:18:43;;;;;;;3.53;0.47;;;;;;;;;;10036257;28;20032;-63
2021/11/08 08:23:41;;;;;;;3.13;1.05;;;;;;;;;;10035427;28;20067;-62
2021/11/08 08:28:39;;;;;;;4.10;0.90;;;;;;;;;;10042609;28;20140;-61
2021/11/08 08:33:38;;;;;;;2.10;0.88;;;;;;;;;;10042075;28;20040;-61
2021/11/08 08:38:35;;;;;;;8.00;1.33;;;;;;;;;;10050452;28;20405;-62
2021/11/08 08:43:33;;;;;;;5.63;0.87;;;;;;;;;;10043139;28;20042;-62
2021/11/08 08:48:30;;;;;;;4.40;0.83;;;;;;;;;;10040778;28;20044;-62
2021/11/08 08:53:28;;;;;;;8.10;1.73;;;;;;;;;;10049458;28;20043;-62
2021/11/08 08:58:26;;;;;;;8.02;1.67;;;;;;;;;;10045395;28;20036;-61
2021/11/08 09:03:23;;;;;;;1.47;0.90;;;;;;;;;;10139717;28;20046;-63
2021/11/08 09:08:21;;;;;;;4.20;0.88;;;;;;;;;;10134569;28;20096;-62
2021/11/08 09:13:18;;;;;;;3.17;1.10;;;;;;;;;;10150818;28;20045;-62
2021/11/08 09:18:16;;;;;;;7.47;0.90;;;;;;;;;;10105187;28;20049;-61
2021/11/08 09:23:14;;;;;;;7.17;1.53;;;;;;;;;;10145779;28;20088;-60
2021/11/08 09:28:12;;;;;;;;;;;;;;;;;;10118912;28;20045;-63
2021/11/08 09:33:09;;;;;;;4.30;1.40;;;;;;;;;;10136745;28;19930;-61
2021/11/08 09:38:09;;;;;;;4.17;1.50;;;;;;;;;;10130203;28;20097;-61
2021/11/08 09:43:08;;;;;;;2.83;1.25;;;;;;;;;;10118701;28;20045;-61
2021/11/08 09:48:05;;;;;;;4.63;1.20;;;;;;;;;;10131888;28;20099;-62
2021/11/08 09:53:05;;;;;;;4.50;1.37;;;;;;;;;;10127645;28;20056;-60
2021/11/08 09:58:04;;;;;;;2.08;1.08;;;;;;;;;;10117722;28;20051;-62
2021/11/08 10:03:06;;;;;;;2.25;0.82;;;;;;;;;;10141981;28;20042;-62
2021/11/08 10:08:04;;;;;;;2.65;1.20;;;;;;;;;;10147839;28;20050;-63
2021/11/08 10:13:12;;;;;;;2.45;0.68;;;;;;;;;;10122147;28;20037;-61
2021/11/08 10:18:10;;;;;;;3.03;1.25;;;;;;;;;;10125607;28;20513;-62
2021/11/08 10:23:09;;;;;;;5.03;1.30;;;;;;;;;;10162125;28;20032;-62
2021/11/08 10:28:11;;;;;;;7.43;1.13;;;;;;;;;;10120746;28;20354;-61
2021/11/08 10:33:08;;;;;;;3.33;1.05;;;;;;;;;;10157793;28;20044;-61
2021/11/08 10:38:07;;;;;;;3.63;1.07;;;;;;;;;;10142098;28;20042;-64
2021/11/08 10:43:04;;;;;;;4.50;1.00;;;;;;;;;;10155945;28;20048;-64
2021/11/08 10:48:04;;;;;;;1.47;0.80;;;;;;;;;;10126325;28;20159;-63
2021/11/08 10:53:02;;;;;;;3.13;0.73;;;;;;;;;;10138514;28;20187;-63
2021/11/08 10:58:10;;;;;;;5.28;0.85;;;;;;;;;;10138593;28;20041;-63
2021/11/08 11:03:17;;;;;;;4.38;1.20;;;;;;;;;;10138467;28;20032;-62
2021/11/08 11:08:15;;;;;;;2.38;0.98;;;;;;;;;;10129588;28;20041;-64
2021/11/08 11:13:15;;;;;;;2.20;0.80;;;;;;;;;;10136006;28;20092;-64
2021/11/08 11:18:13;;;;;;;3.75;0.80;;;;;;;;;;10110791;28;20427;-65
2021/11/08 11:23:16;;;;;;;1.55;0.70;;;;;;;;;;10141435;28;20045;-64
2021/11/08 11:28:15;;;;;;;4.72;1.30;;;;;;;;;;10126918;28;20494;-64
2021/11/08 11:33:24;;;;;;;2.60;1.10;;;;;;;;;;10158830;28;20063;-64
2021/11/08 11:38:26;;;;;;;1.25;0.73;;;;;;;;;;10133487;28;20502;-63
2021/11/08 11:43:31;;;;;;;1.08;0.68;;;;;;;;;;10129726;28;20147;-65
2021/11/08 11:48:30;;;;;;;3.53;1.10;;;;;;;;;;10111395;28;20040;-64
2021/11/08 11:53:29;;;;;;;2.25;0.93;;;;;;;;;;10141229;28;20033;-64
2021/11/08 11:58:29;;;;;;;2.80;0.80;;;;;;;;;;10130924;28;20038;-62
2021/11/08 12:03:28;;;;;;;3.53;1.15;;;;;;;;;;10133759;28;20076;-65
2021/11/08 12:08:34;;;;;;;5.63;1.63;;;;;;;;;;10130172;28;20165;-62
2021/11/08 12:13:34;;;;;;;3.97;0.98;;;;;;;;;;10135479;28;20034;-62
2021/11/08 12:18:32;;;;;;;2.53;1.33;;;;;;;;;;10123621;28;20040;-64
2021/11/08 12:23:30;;;;;;;7.25;1.60;;;;;;;;;;10139557;28;20060;-62
2021/11/08 12:28:29;;;;;;;4.45;1.80;;;;;;;;;;10134015;28;20036;-62
2021/11/08 12:33:27;;;;;;;2.40;1.38;;;;;;;;;;10110631;28;20530;-61
2021/11/08 12:38:27;;;;;;;7.57;2.27;;;;;;;;;;10123347;28;20437;-61
2021/11/08 12:43:25;;;;;;;6.32;2.00;;;;;;;;;;10123280;28;20519;-62
2021/11/08 12:48:22;;;;;;;;;;;;;;;;;;10124659;28;20052;-60
2021/11/08 12:53:21;;;;;;;7.32;1.83;;;;;;;;;;10123531;28;19981;-62
2021/11/08 12:58:19;;;;;;;6.55;1.67;;;;;;;;;;10135860;28;20074;-61
2021/11/08 13:03:27;;;;;;;4.23;1.17;;;;;;;;;;10118669;28;20046;-62
2021/11/08 13:08:26;;;;;;;9.10;1.33;;;;;;;;;;10116824;28;20045;-59
2021/11/08 13:13:23;;;;;;;4.82;1.33;;;;;;;;;;10130109;28;20051;-61
2021/11/08 13:18:21;;;;;;;6.53;1.03;;;;;;;;;;10147298;28;20034;-61
2021/11/08 13:23:22;;;;;;;3.80;1.13;;;;;;;;;;10131177;28;20057;-62
2021/11/08 13:28:22;;;;;;;5.80;1.60;;;;;;;;;;10125391;28;20123;-60
2021/11/08 13:33:21;;;;;;;9.73;1.90;;;;;;;;;;10134536;28;20135;-62
2021/11/08 13:38:21;;;;;;;5.70;1.00;;;;;;;;;;10129203;28;20077;-60
2021/11/08 13:43:24;;;;;;;6.75;1.73;;;;;;;;;;10142156;28;20038;-62
2021/11/08 13:48:21;;;;;;;5.78;1.02;;;;;;;;;;10129103;28;20098;-61
2021/11/08 13:53:23;;;;;;;5.10;0.93;;;;;;;;;;10144934;28;20403;-62
2021/11/08 13:58:21;;;;;;;4.50;0.75;;;;;;;;;;10141716;28;20046;-61
2021/11/08 14:03:18;;;;;;;3.83;1.27;;;;;;;;;;10122884;28;20126;-62
2021/11/08 14:08:23;;;;;;;8.50;1.10;;;;;;;;;;10128251;28;20041;-61
2021/11/08 14:13:27;;;;;;;5.97;1.30;;;;;;;;;;10151356;28;20417;-61
2021/11/08 14:18:25;;;;;;;4.25;0.57;;;;;;;;;;10133051;28;20444;-60
2021/11/08 14:23:26;;;;;;;6.60;1.27;;;;;;;;;;10119217;28;20032;-61
2021/11/08 14:28:25;;;;;;;8.65;1.10;;;;;;;;;;10123486;28;20526;-60
2021/11/08 14:33:22;;;;;;;7.05;2.05;;;;;;;;;;10029612;28;20036;-60
2021/11/08 14:38:28;;;;;;;12.20;3.13;;;;;;;;;;10029041;28;20044;-61
2021/11/08 14:43:26;;;;;;;10.38;2.00;;;;;;;;;;10036591;28;20549;-60
2021/11/08 14:48:25;;;;;;;7.00;2.17;;;;;;;;;;10057747;28;20937;-62
2021/11/08 14:53:22;;;;;;;6.30;1.90;;;;;;;;;;10000840;28;20036;-58
2021/11/08 14:58:19;;;;;;;6.77;1.73;;;;;;;;;;10049483;28;20048;-59
2021/11/08 15:03:18;;;;;;;9.10;2.00;;;;;;;;;;10044733;28;20032;-60
2021/11/08 15:08:17;;;;;;;7.10;2.20;;;;;;;;;;10033574;28;20055;-59
2021/11/08 15:13:15;;;;;;;11.35;2.67;;;;;;;;;;10043684;28;20231;-59
2021/11/08 15:18:13;;;;;;;9.18;4.13;;;;;;;;;;10052024;28;20044;-61
2021/11/08 15:23:12;;;;;;;9.27;2.77;;;;;;;;;;10044771;28;20485;-61
2021/11/08 15:28:22;;;;;;;3.83;2.20;;;;;;;;;;10057083;28;20052;-62
2021/11/08 15:33:21;;;;;;;7.65;1.90;;;;;;;;;;10066365;28;20039;-62
2021/11/08 15:38:21;;;;;;;7.22;2.30;;;;;;;;;;10059759;28;20040;-62
2021/11/08 15:43:19;;;;;;;4.45;1.63;;;;;;;;;;10031222;28;20043;-62
2021/11/08 15:48:17;;;;;;;4.85;1.70;;;;;;;;;;10045404;28;20117;-62
2021/11/08 15:53:15;;;;;;;16.85;2.30;;;;;;;;;;10047486;28;20034;-60
2021/11/08 15:58:13;;;;;;;8.33;2.17;;;;;;;;;;10042319;28;20131;-62
2021/11/08 16:03:10;;;;;;;4.30;1.67;;;;;;;;;;10042921;28;20064;-62
2021/11/08 16:08:08;;;;;;;10.50;2.30;;;;;;;;;;10037812;28;20308;-62
2021/11/08 16:13:12;;;;;;;8.35;2.20;;;;;;;;;;10212721;22;20046;-62
2021/11/08 16:18:11;;;;;;;3.85;1.33;;;;;;;;;;10232750;28;20041;-62
2021/11/08 16:23:10;;;;;;;;;;;;;;;;;;10249008;28;20029;-62
2021/11/08 16:28:07;;;;;;;16.00;1.77;;;;;;;;;;10236792;28;19922;-62
2021/11/08 16:33:14;;;;;;;3.20;1.07;;;;;;;;;;10238902;28;20036;-62
2021/11/08 16:38:38;;;;;;;8.18;1.52;;;;;;;;;;10228370;28;20038;-63
2021/11/08 16:43:35;;;;;;;6.22;1.48;;;;;;;;;;10222812;28;20038;-63
2021/11/08 16:48:39;;;;;;;5.35;1.48;;;;;;;;;;10254705;28;20042;-63
2021/11/08 16:53:38;;;;;;;5.45;1.20;;;;;;;;;;10218353;28;20030;-63
2021/11/08 16:58:36;;;;;;;5.57;1.20;;;;;;;;;;10224208;28;20396;-63
2021/11/08 17:03:35;;;;;;;5.17;1.23;;;;;;;;;;10229766;28;20073;-63
2021/11/08 17:08:57;;;;;;;12.38;1.45;;;;;;;;;;10235437;28;20380;-63
2021/11/08 17:13:55;;;;;;;4.15;1.45;;;;;;;;;;10235747;28;20074;-63
2021/11/08 17:18:53;;;;;;;4.03;1.55;;;;;;;;;;10274683;28;20038;-64
2021/11/08 17:23:51;;;;;;;8.48;1.08;;;;;;;;;;10274751;28;20029;-63
2021/11/08 17:28:49;;;;;;;1.60;1.20;;;;;;;;;;10266831;28;20037;-63
2021/11/08 17:33:48;;;;;;;1.65;0.75;;;;;;;;;;10277217;28;20057;-63
2021/11/08 17:38:46;;;;;;;5.25;1.30;;;;;;;;;;10232164;28;20116;-63
2021/11/08 17:43:45;;;;;;;5.77;1.67;;;;;;;;;;10238992;28;20048;-65
2021/11/08 17:48:43;;;;;;;2.67;0.90;;;;;;;;;;10242082;28;20100;-65
2021/11/08 17:53:41;;;;;;;3.07;1.23;;;;;;;;;;10248202;28;20487;-64
2021/11/08 17:58:39;;;;;;;6.15;1.60;;;;;;;;;;10233155;28;20077;-64
2021/11/08 18:03:37;;;;;;;5.93;0.83;;;;;;;;;;10230850;28;20129;-65
2021/11/08 18:08:36;;;;;;;9.77;1.65;;;;;;;;;;10243371;28;20121;-65
2021/11/08 18:13:33;;;;;;;12.48;1.63;;;;;;;;;;10238817;28;20041;-65
2021/11/08 18:18:31;;;;;;;6.23;1.13;;;;;;;;;;10251044;28;20033;-65
2021/11/08 18:24:07;;;;;;;5.72;1.10;;;;;;;;;;10243764;28;20034;-65
2021/11/08 18:28:52;;;;;;;7.88;1.98;;;;;;;;;;10249668;28;20562;-65
2021/11/08 18:33:50;;;;;;;3.70;0.80;;;;;;;;;;10237283;28;20688;-65
2021/11/08 18:38:48;;;;;;;5.43;1.17;;;;;;;;;;10279693;28;20131;-64
2021/11/08 18:43:46;;;;;;;0.85;0.40;;;;;;;;;;10275784;28;20061;-64
2021/11/08 18:48:43;;;;;;;2.40;0.77;;;;;;;;;;10275747;28;20041;-64
2021/11/08 18:53:41;;;;;;;0.83;0.83;;;;;;;;;;10274191;28;20238;-64
2021/11/08 18:58:39;;;;;;;2.60;0.85;;;;;;;;;;10295733;28;20042;-64
2021/11/08 19:04:13;;;;;;;5.75;1.58;;;;;;;;;;10293369;28;20064;-66
2021/11/08 19:09:04;;;;;;;4.78;1.65;;;;;;;;;;10312483;28;20037;-64
2021/11/08 19:14:04;;;;;;;12.93;1.65;;;;;;;;;;10291148;28;20034;-65
2021/11/08 19:19:03;;;;;;;5.38;1.45;;;;;;;;;;10291865;28;20045;-64
2021/11/08 19:24:05;;;;;;;6.10;1.35;;;;;;;;;;10282502;28;20046;-65
2021/11/08 19:29:08;;;;;;;6.40;1.23;;;;;;;;;;10276072;28;20090;-65
2021/11/08 19:39:08;;;;;;;4.78;1.33;;;;;;;;;;10294315;28;20110;-66
2021/11/08 19:44:06;;;;;;;5.38;1.20;;;;;;;;;;10283259;28;20038;-65
2021/11/08 19:49:05;;;;;;;9.88;1.80;;;;;;;;;;10283335;28;20048;-65
2021/11/08 19:54:02;;;;;;;7.13;3.07;;;;;;;;;;10284261;28;20490;-65
2021/11/08 19:59:00;;;;;;;28.47;8.67;;;;;;;;;;10293752;28;20280;-66
2021/11/08 20:03:59;;;;;;;59.93;15.43;;;;;;;;;;10285555;28;20793;-65
2021/11/08 20:08:58;;;;;;;40.17;16.98;;;;;;;;;;10260738;28;20621;-65
2021/11/08 20:14:13;;;;;;;36.45;14.75;;;;;;;;;;10272348;28;20121;-66
2021/11/08 20:19:12;;;;;;;29.30;10.77;;;;;;;;;;10282217;28;20056;-65
2021/11/08 20:24:11;;;;;;;32.47;13.35;;;;;;;;;;10270116;28;20046;-66
2021/11/08 20:29:25;;;;;;;25.63;9.10;;;;;;;;;;10301577;28;20041;-66
2021/11/08 20:44:53;;;;;;;27.55;9.85;;;;;;;;;;10279092;28;20045;-65
2021/11/08 21:00:25;;;;;;;26.60;8.80;;;;;;;;;;10276486;28;20041;-66
2021/11/08 21:05:31;;;;;;;36.42;12.90;;;;;;;;;;10277992;28;20052;-66
2021/11/08 21:15:32;;;;;;;33.05;9.90;;;;;;;;;;10273630;28;20046;-66
2021/11/08 21:20:30;;;;;;;26.10;8.35;;;;;;;;;;10274596;28;20091;-65
2021/11/08 21:25:29;;;;;;;17.67;7.27;;;;;;;;;;10271469;28;20099;-66
2021/11/08 21:40:56;;;;;;;10.73;3.10;;;;;;;;;;10277220;28;20072;-63
2021/11/08 21:45:54;;;;;;;7.72;2.58;;;;;;;;;;10275805;28;20103;-64
2021/11/08 21:50:52;;;;;;;19.33;3.90;;;;;;;;;;10285745;28;20041;-64
2021/11/08 21:55:50;;;;;;;26.13;3.47;;;;;;;;;;10287451;28;20479;-64
2021/11/08 22:00:48;;;;;;;4.13;2.58;;;;;;;;;;10285117;28;20435;-64
2021/11/08 22:05:46;;;;;;;15.67;3.10;;;;;;;;;;10286510;28;20037;-65
2021/11/08 22:10:43;;;;;;;12.50;3.70;;;;;;;;;;10274527;22;20350;-62
2021/11/08 22:15:41;;;;;;;11.83;2.13;;;;;;;;;;10140924;28;20377;-63
2021/11/08 22:20:39;;;;;;;12.88;2.28;;;;;;;;;;10205744;28;20056;-62
2021/11/08 22:25:37;;;;;;;12.40;2.47;;;;;;;;;;10214819;28;20032;-61
2021/11/08 22:30:34;;;;;;;11.50;2.40;;;;;;;;;;10185858;28;20053;-63
2021/11/08 22:35:33;;;;;;;12.30;2.23;;;;;;;;;;10179561;28;20244;-64
2021/11/08 22:40:30;;;;;;;9.00;2.17;;;;;;;;;;10174682;28;20041;-63
2021/11/08 22:45:28;;;;;;;8.77;2.23;;;;;;;;;;10164321;28;20790;-63
2021/11/08 22:50:25;;;;;;;6.17;2.27;;;;;;;;;;10111608;28;20532;-63
2021/11/08 22:55:23;;;;;;;5.60;1.80;;;;;;;;;;10069247;28;20035;-61
2021/11/08 23:00:23;;;;;;;9.43;2.42;;;;;;;;;;10073498;28;20055;-63
2021/11/08 23:05:22;;;;;;;7.47;2.15;;;;;;;;;;10069701;28;20036;-65
2021/11/08 23:10:21;;;;;;;6.35;1.63;;;;;;;;;;10072065;28;20044;-65
2021/11/08 23:15:18;;;;;;;11.57;1.50;;;;;;;;;;10044151;28;20036;-65
2021/11/08 23:20:17;;;;;;;6.73;1.30;;;;;;;;;;10106123;28;20026;-65
2021/11/08 23:25:16;;;;;;;8.50;2.22;;;;;;;;;;10293053;28;20064;-64
2021/11/08 23:30:13;;;;;;;;;;;;;;;;;;10312080;28;20048;-64
2021/11/08 23:35:12;;;;;;;0.50;0.50;;;;;;;;;;10285115;28;20172;-65
2021/11/08 23:40:10;;;;;;;2.50;0.40;;;;;;;;;;10306442;28;20072;-65
2021/11/08 23:45:08;;;;;;;2.00;1.58;;;;;;;;;;10286089;28;20500;-64
2021/11/08 23:50:06;;;;;;;7.13;1.08;;;;;;;;;;10118148;28;20070;-64
2021/11/08 23:55:05;;;;;;;4.00;1.27;;;;;;;;;;10098240;28;20111;-63
